sensor_id;sensor_type;location;lat;lon;timestamp;pressure;altitude;pressure_sealevel;temperature;humidity
62926;BME280;55732;52.248;-0.844;2023-07-02T11:13:15;100248.08;;;19.93;44.86
62926;BME280;55732;52.248;-0.844;2023-07-02T11:15:41;100245.93;;;19.93;45.09
62926;BME280;55732;52.248;-0.844;2023-07-02T11:18:11;100241.77;;;19.94;44.98
62926;BME280;55732;52.248;-0.844;2023-07-02T11:20:38;100241.52;;;19.99;44.65
62926;BME280;55732;52.248;-0.844;2023-07-02T11:23:04;100244.27;;;20.25;44.34
62926;BME280;55732;52.248;-0.844;2023-07-02T11:25:29;100240.56;;;20.51;44.25
62926;BME280;55732;52.248;-0.844;2023-07-02T11:28:04;100238.61;;;20.66;44.11
62926;BME280;55732;52.248;-0.844;2023-07-02T11:30:30;100240.38;;;20.88;43.98
62926;BME280;55732;52.248;-0.844;2023-07-02T11:32:56;100240.52;;;21.00;43.55
62926;BME280;55732;52.248;-0.844;2023-07-02T11:35:22;100244.44;;;20.97;43.43
62926;BME280;55732;52.248;-0.844;2023-07-02T11:37:58;100249.73;;;20.76;43.27
62926;BME280;55732;52.248;-0.844;2023-07-02T11:40:23;100243.96;;;20.51;43.25
62926;BME280;55732;52.248;-0.844;2023-07-02T11:42:49;100244.64;;;20.29;43.74
62926;BME280;55732;52.248;-0.844;2023-07-02T11:45:14;100245.48;;;20.11;44.29
62926;BME280;55732;52.248;-0.844;2023-07-02T11:47:40;100246.09;;;19.98;44.52
62926;BME280;55732;52.248;-0.844;2023-07-02T11:50:06;100243.70;;;19.87;44.88
62926;BME280;55732;52.248;-0.844;2023-07-02T11:52:32;100241.71;;;19.88;44.87
62926;BME280;55732;52.248;-0.844;2023-07-02T11:54:57;100235.00;;;20.13;44.91
62926;BME280;55732;52.248;-0.844;2023-07-02T11:57:22;100236.86;;;20.43;45.20
62926;BME280;55732;52.248;-0.844;2023-07-02T11:59:48;100239.31;;;20.59;45.05
62926;BME280;55732;52.248;-0.844;2023-07-02T12:02:15;100235.73;;;20.59;44.77
62926;BME280;55732;52.248;-0.844;2023-07-02T12:04:40;100241.82;;;20.47;44.71
62926;BME280;55732;52.248;-0.844;2023-07-02T12:07:06;100241.83;;;20.32;44.39
62926;BME280;55732;52.248;-0.844;2023-07-02T12:09:31;100235.73;;;20.28;44.01
62926;BME280;55732;52.248;-0.844;2023-07-02T12:11:56;100238.36;;;20.37;43.87
62926;BME280;55732;52.248;-0.844;2023-07-02T12:14:22;100234.98;;;20.52;43.73
62926;BME280;55732;52.248;-0.844;2023-07-02T12:16:47;100237.16;;;20.70;43.52
62926;BME280;55732;52.248;-0.844;2023-07-02T12:19:13;100236.54;;;20.79;43.68
62926;BME280;55732;52.248;-0.844;2023-07-02T12:21:38;100237.60;;;20.79;43.20
62926;BME280;55732;52.248;-0.844;2023-07-02T12:24:04;100230.09;;;20.64;43.30
62926;BME280;55732;52.248;-0.844;2023-07-02T12:26:34;100228.09;;;20.54;43.49
62926;BME280;55732;52.248;-0.844;2023-07-02T12:28:59;100229.38;;;20.42;43.46
62926;BME280;55732;52.248;-0.844;2023-07-02T12:31:26;100229.73;;;20.23;43.83
62926;BME280;55732;52.248;-0.844;2023-07-02T12:33:51;100228.02;;;20.09;43.92
62926;BME280;55732;52.248;-0.844;2023-07-02T12:36:16;100227.09;;;19.94;44.25
62926;BME280;55732;52.248;-0.844;2023-07-02T12:38:42;100225.48;;;19.91;44.43
62926;BME280;55732;52.248;-0.844;2023-07-02T12:41:07;100224.92;;;19.95;44.27
62926;BME280;55732;52.248;-0.844;2023-07-02T12:43:32;100223.60;;;20.04;44.32
62926;BME280;55732;52.248;-0.844;2023-07-02T12:45:58;100219.77;;;20.21;43.77
62926;BME280;55732;52.248;-0.844;2023-07-02T12:48:23;100225.27;;;20.42;43.05
62926;BME280;55732;52.248;-0.844;2023-07-02T12:50:59;100215.74;;;20.76;42.08
62926;BME280;55732;52.248;-0.844;2023-07-02T12:53:26;100214.02;;;20.93;41.78
62926;BME280;55732;52.248;-0.844;2023-07-02T12:55:51;100214.45;;;20.95;41.51
62926;BME280;55732;52.248;-0.844;2023-07-02T12:58:17;100215.27;;;20.93;41.60
62926;BME280;55732;52.248;-0.844;2023-07-02T13:00:42;100217.09;;;20.92;41.61
62926;BME280;55732;52.248;-0.844;2023-07-02T13:03:12;100217.41;;;20.93;42.21
62926;BME280;55732;52.248;-0.844;2023-07-02T13:05:38;100215.89;;;20.95;41.88
62926;BME280;55732;52.248;-0.844;2023-07-02T13:08:04;100213.84;;;20.96;40.95
62926;BME280;55732;52.248;-0.844;2023-07-02T13:10:30;100216.79;;;21.09;40.77
62926;BME280;55732;52.248;-0.844;2023-07-02T13:12:56;100208.98;;;21.18;40.62
62926;BME280;55732;52.248;-0.844;2023-07-02T13:15:21;100209.73;;;21.17;40.23
62926;BME280;55732;52.248;-0.844;2023-07-02T13:17:47;100214.55;;;21.14;40.11
62926;BME280;55732;52.248;-0.844;2023-07-02T13:20:12;100221.02;;;21.10;40.00
62926;BME280;55732;52.248;-0.844;2023-07-02T13:22:38;100219.63;;;21.06;39.83
62926;BME280;55732;52.248;-0.844;2023-07-02T13:25:04;100219.92;;;21.03;39.78
62926;BME280;55732;52.248;-0.844;2023-07-02T13:27:30;100213.83;;;21.11;39.78
62926;BME280;55732;52.248;-0.844;2023-07-02T13:29:55;100214.01;;;21.18;40.25
62926;BME280;55732;52.248;-0.844;2023-07-02T13:32:21;100210.70;;;21.20;39.79
62926;BME280;55732;52.248;-0.844;2023-07-02T13:34:46;100209.04;;;21.24;40.05
62926;BME280;55732;52.248;-0.844;2023-07-02T13:37:11;100201.76;;;21.40;40.03
62926;BME280;55732;52.248;-0.844;2023-07-02T13:39:37;100200.29;;;21.51;39.30
62926;BME280;55732;52.248;-0.844;2023-07-02T13:42:03;100211.29;;;21.47;38.84
62926;BME280;55732;52.248;-0.844;2023-07-02T13:44:29;100212.37;;;21.43;38.75
62926;BME280;55732;52.248;-0.844;2023-07-02T13:46:54;100204.11;;;21.40;38.95
62926;BME280;55732;52.248;-0.844;2023-07-02T13:49:20;100205.02;;;21.40;39.32
62926;BME280;55732;52.248;-0.844;2023-07-02T13:51:47;100207.17;;;21.43;39.63
62926;BME280;55732;52.248;-0.844;2023-07-02T13:54:14;100206.23;;;21.55;39.39
62926;BME280;55732;52.248;-0.844;2023-07-02T13:56:40;100206.08;;;21.60;39.07
62926;BME280;55732;52.248;-0.844;2023-07-02T13:59:06;100206.55;;;21.58;39.46
62926;BME280;55732;52.248;-0.844;2023-07-02T14:01:32;100202.16;;;21.60;39.76
62926;BME280;55732;52.248;-0.844;2023-07-02T14:03:57;100208.38;;;21.54;39.37
62926;BME280;55732;52.248;-0.844;2023-07-02T14:06:23;100208.44;;;21.46;39.27
62926;BME280;55732;52.248;-0.844;2023-07-02T14:08:48;100199.66;;;21.43;39.68
62926;BME280;55732;52.248;-0.844;2023-07-02T14:11:14;100198.16;;;21.44;39.56
62926;BME280;55732;52.248;-0.844;2023-07-02T14:13:39;100198.42;;;21.43;39.61
62926;BME280;55732;52.248;-0.844;2023-07-02T14:16:04;100195.23;;;21.39;39.70
62926;BME280;55732;52.248;-0.844;2023-07-02T14:18:30;100196.98;;;21.36;39.85
62926;BME280;55732;52.248;-0.844;2023-07-02T14:20:55;100192.23;;;21.35;40.24
62926;BME280;55732;52.248;-0.844;2023-07-02T14:23:20;100196.92;;;21.34;40.07
62926;BME280;55732;52.248;-0.844;2023-07-02T14:25:46;100192.73;;;21.38;40.28
62926;BME280;55732;52.248;-0.844;2023-07-02T14:28:11;100194.42;;;21.40;39.88
62926;BME280;55732;52.248;-0.844;2023-07-02T14:30:37;100192.42;;;21.37;39.85
62926;BME280;55732;52.248;-0.844;2023-07-02T14:33:02;100186.38;;;21.37;40.34
62926;BME280;55732;52.248;-0.844;2023-07-02T14:35:28;100178.64;;;21.41;40.05
62926;BME280;55732;52.248;-0.844;2023-07-02T14:37:56;100190.63;;;21.41;40.05
62926;BME280;55732;52.248;-0.844;2023-07-02T14:40:22;100185.05;;;21.38;40.09
62926;BME280;55732;52.248;-0.844;2023-07-02T14:42:48;100180.83;;;21.30;40.11
62926;BME280;55732;52.248;-0.844;2023-07-02T14:45:13;100184.16;;;21.21;40.22
62926;BME280;55732;52.248;-0.844;2023-07-02T14:47:38;100177.95;;;21.16;40.63
62926;BME280;55732;52.248;-0.844;2023-07-02T14:50:05;100176.93;;;21.11;40.63
62926;BME280;55732;52.248;-0.844;2023-07-02T14:52:31;100183.06;;;21.03;40.97
62926;BME280;55732;52.248;-0.844;2023-07-02T14:54:56;100178.63;;;20.99;41.20
62926;BME280;55732;52.248;-0.844;2023-07-02T14:57:25;100174.29;;;21.04;41.22
62926;BME280;55732;52.248;-0.844;2023-07-02T14:59:50;100169.68;;;21.09;41.38
62926;BME280;55732;52.248;-0.844;2023-07-02T15:02:16;100170.34;;;21.10;40.94
62926;BME280;55732;52.248;-0.844;2023-07-02T15:04:42;100170.90;;;21.10;40.92
62926;BME280;55732;52.248;-0.844;2023-07-02T15:07:07;100170.58;;;21.16;40.93
62926;BME280;55732;52.248;-0.844;2023-07-02T15:09:33;100182.14;;;21.18;40.76
62926;BME280;55732;52.248;-0.844;2023-07-02T15:11:58;100176.31;;;21.12;40.72
62926;BME280;55732;52.248;-0.844;2023-07-02T15:14:23;100181.17;;;21.09;41.00
62926;BME280;55732;52.248;-0.844;2023-07-02T15:16:49;100174.36;;;21.09;40.86
62926;BME280;55732;52.248;-0.844;2023-07-02T15:19:14;100169.23;;;21.04;40.92
62926;BME280;55732;52.248;-0.844;2023-07-02T15:21:41;100172.40;;;21.02;41.00
62926;BME280;55732;52.248;-0.844;2023-07-02T15:24:07;100174.52;;;20.99;41.04
62926;BME280;55732;52.248;-0.844;2023-07-02T15:26:35;100169.73;;;20.95;41.18
62926;BME280;55732;52.248;-0.844;2023-07-02T15:29:01;100167.20;;;20.88;40.94
62926;BME280;55732;52.248;-0.844;2023-07-02T15:31:26;100167.02;;;20.81;41.32
62926;BME280;55732;52.248;-0.844;2023-07-02T15:33:52;100170.10;;;20.80;41.29
62926;BME280;55732;52.248;-0.844;2023-07-02T15:36:19;100172.74;;;20.77;41.39
62926;BME280;55732;52.248;-0.844;2023-07-02T15:38:45;100175.54;;;20.71;41.67
62926;BME280;55732;52.248;-0.844;2023-07-02T15:41:13;100175.86;;;20.68;41.53
62926;BME280;55732;52.248;-0.844;2023-07-02T15:43:40;100173.42;;;20.64;41.37
62926;BME280;55732;52.248;-0.844;2023-07-02T15:46:06;100173.88;;;20.58;41.18
62926;BME280;55732;52.248;-0.844;2023-07-02T15:48:32;100170.33;;;20.58;41.49
62926;BME280;55732;52.248;-0.844;2023-07-02T15:50:57;100172.41;;;20.59;41.49
62926;BME280;55732;52.248;-0.844;2023-07-02T15:53:23;100171.52;;;20.59;41.65
62926;BME280;55732;52.248;-0.844;2023-07-02T15:55:54;100165.92;;;20.60;41.40
62926;BME280;55732;52.248;-0.844;2023-07-02T15:58:20;100165.21;;;20.74;41.24
62926;BME280;55732;52.248;-0.844;2023-07-02T16:00:45;100157.15;;;20.99;41.14
62926;BME280;55732;52.248;-0.844;2023-07-02T16:03:11;100154.67;;;21.16;40.96
62926;BME280;55732;52.248;-0.844;2023-07-02T16:05:37;100158.70;;;21.42;40.17
62926;BME280;55732;52.248;-0.844;2023-07-02T16:08:05;100155.98;;;21.62;39.47
62926;BME280;55732;52.248;-0.844;2023-07-02T16:10:31;100150.50;;;21.78;39.45
62926;BME280;55732;52.248;-0.844;2023-07-02T16:12:57;100158.65;;;21.83;39.04
62926;BME280;55732;52.248;-0.844;2023-07-02T16:15:24;100158.23;;;21.90;39.26
62926;BME280;55732;52.248;-0.844;2023-07-02T16:17:50;100153.43;;;22.03;39.04
62926;BME280;55732;52.248;-0.844;2023-07-02T16:20:20;100156.43;;;22.04;39.02
62926;BME280;55732;52.248;-0.844;2023-07-02T16:22:45;100150.38;;;21.93;38.91
62926;BME280;55732;52.248;-0.844;2023-07-02T16:25:10;100154.69;;;21.86;38.78
62926;BME280;55732;52.248;-0.844;2023-07-02T16:27:36;100152.86;;;21.77;39.08
62926;BME280;55732;52.248;-0.844;2023-07-02T16:30:02;100154.39;;;21.66;38.87
62926;BME280;55732;52.248;-0.844;2023-07-02T16:32:28;100151.45;;;21.47;38.80
62926;BME280;55732;52.248;-0.844;2023-07-02T16:34:54;100160.36;;;21.27;38.97
62926;BME280;55732;52.248;-0.844;2023-07-02T16:37:20;100160.92;;;21.16;39.20
62926;BME280;55732;52.248;-0.844;2023-07-02T16:39:45;100154.59;;;21.04;39.21
62926;BME280;55732;52.248;-0.844;2023-07-02T16:42:11;100156.64;;;20.92;39.33
62926;BME280;55732;52.248;-0.844;2023-07-02T16:44:38;100161.75;;;20.79;39.45
62926;BME280;55732;52.248;-0.844;2023-07-02T16:47:04;100166.14;;;20.70;39.62
62926;BME280;55732;52.248;-0.844;2023-07-02T16:49:30;100166.33;;;20.66;39.87
62926;BME280;55732;52.248;-0.844;2023-07-02T16:51:56;100159.77;;;20.65;39.93
62926;BME280;55732;52.248;-0.844;2023-07-02T16:54:22;100162.31;;;20.56;40.07
62926;BME280;55732;52.248;-0.844;2023-07-02T16:56:59;100157.51;;;20.49;40.05
62926;BME280;55732;52.248;-0.844;2023-07-02T16:59:28;100153.92;;;20.42;40.16
62926;BME280;55732;52.248;-0.844;2023-07-02T17:01:56;100154.29;;;20.38;40.29
62926;BME280;55732;52.248;-0.844;2023-07-02T17:04:24;100152.77;;;20.32;40.55
62926;BME280;55732;52.248;-0.844;2023-07-02T17:06:52;100155.36;;;20.26;40.69
62926;BME280;55732;52.248;-0.844;2023-07-02T17:09:24;100161.23;;;20.23;41.01
62926;BME280;55732;52.248;-0.844;2023-07-02T17:11:55;100158.55;;;20.19;41.13
62926;BME280;55732;52.248;-0.844;2023-07-02T17:14:23;100158.42;;;20.14;41.03
62926;BME280;55732;52.248;-0.844;2023-07-02T17:16:55;100154.13;;;20.07;40.85
62926;BME280;55732;52.248;-0.844;2023-07-02T17:21:49;100149.03;;;19.97;40.83
62926;BME280;55732;52.248;-0.844;2023-07-02T17:24:36;100150.73;;;19.96;40.66
62926;BME280;55732;52.248;-0.844;2023-07-02T17:27:02;100150.70;;;19.96;40.84
62926;BME280;55732;52.248;-0.844;2023-07-02T17:29:28;100151.86;;;19.94;40.46
62926;BME280;55732;52.248;-0.844;2023-07-02T17:31:58;100152.34;;;19.88;40.20
62926;BME280;55732;52.248;-0.844;2023-07-02T17:34:25;100152.16;;;19.80;40.30
62926;BME280;55732;52.248;-0.844;2023-07-02T17:36:52;100147.77;;;19.75;40.56
62926;BME280;55732;52.248;-0.844;2023-07-02T17:39:18;100147.55;;;19.72;40.73
62926;BME280;55732;52.248;-0.844;2023-07-02T17:41:48;100144.63;;;19.70;40.66
62926;BME280;55732;52.248;-0.844;2023-07-02T17:44:16;100146.05;;;19.70;40.75
62926;BME280;55732;52.248;-0.844;2023-07-02T17:46:42;100143.54;;;19.70;40.81
62926;BME280;55732;52.248;-0.844;2023-07-02T17:49:09;100144.30;;;19.69;40.74
62926;BME280;55732;52.248;-0.844;2023-07-02T17:51:35;100147.91;;;19.64;40.75
62926;BME280;55732;52.248;-0.844;2023-07-02T17:54:01;100146.23;;;19.62;40.70
62926;BME280;55732;52.248;-0.844;2023-07-02T17:56:27;100145.01;;;19.61;40.94
62926;BME280;55732;52.248;-0.844;2023-07-02T17:58:53;100137.23;;;19.60;40.80
62926;BME280;55732;52.248;-0.844;2023-07-02T18:01:20;100135.70;;;19.58;40.84
62926;BME280;55732;52.248;-0.844;2023-07-02T18:03:45;100137.17;;;19.53;40.72
62926;BME280;55732;52.248;-0.844;2023-07-02T18:06:11;100139.63;;;19.50;41.18
62926;BME280;55732;52.248;-0.844;2023-07-02T18:08:36;100142.46;;;19.45;40.98
62926;BME280;55732;52.248;-0.844;2023-07-02T18:11:01;100140.70;;;19.37;40.65
62926;BME280;55732;52.248;-0.844;2023-07-02T18:13:27;100136.36;;;19.30;40.69
62926;BME280;55732;52.248;-0.844;2023-07-02T18:15:53;100138.08;;;19.28;40.73
62926;BME280;55732;52.248;-0.844;2023-07-02T18:18:19;100135.58;;;19.24;40.80
62926;BME280;55732;52.248;-0.844;2023-07-02T18:20:45;100132.21;;;19.19;40.87
62926;BME280;55732;52.248;-0.844;2023-07-02T18:23:11;100132.40;;;19.11;40.96
62926;BME280;55732;52.248;-0.844;2023-07-02T18:25:37;100131.91;;;19.01;41.23
62926;BME280;55732;52.248;-0.844;2023-07-02T18:28:08;100135.39;;;18.95;41.54
62926;BME280;55732;52.248;-0.844;2023-07-02T18:30:34;100133.16;;;18.89;41.83
62926;BME280;55732;52.248;-0.844;2023-07-02T18:33:03;100131.96;;;18.84;41.89
62926;BME280;55732;52.248;-0.844;2023-07-02T18:35:32;100133.33;;;18.81;41.85
62926;BME280;55732;52.248;-0.844;2023-07-02T18:37:58;100131.81;;;18.79;41.99
62926;BME280;55732;52.248;-0.844;2023-07-02T18:40:23;100133.68;;;18.76;42.41
62926;BME280;55732;52.248;-0.844;2023-07-02T18:42:48;100133.59;;;18.75;42.32
62926;BME280;55732;52.248;-0.844;2023-07-02T18:45:14;100132.41;;;18.73;42.55
62926;BME280;55732;52.248;-0.844;2023-07-02T18:47:41;100133.73;;;18.71;42.55
62926;BME280;55732;52.248;-0.844;2023-07-02T18:50:08;100134.92;;;18.68;42.78
62926;BME280;55732;52.248;-0.844;2023-07-02T18:52:34;100133.23;;;18.66;42.86
62926;BME280;55732;52.248;-0.844;2023-07-02T18:54:59;100130.71;;;18.63;42.77
62926;BME280;55732;52.248;-0.844;2023-07-02T18:57:25;100131.95;;;18.58;42.89
62926;BME280;55732;52.248;-0.844;2023-07-02T18:59:50;100134.54;;;18.55;42.95
62926;BME280;55732;52.248;-0.844;2023-07-02T19:02:18;100132.91;;;18.52;42.78
62926;BME280;55732;52.248;-0.844;2023-07-02T19:04:51;100132.16;;;18.49;42.76
62926;BME280;55732;52.248;-0.844;2023-07-02T19:07:17;100132.91;;;18.48;42.92
62926;BME280;55732;52.248;-0.844;2023-07-02T19:09:42;100129.81;;;18.45;43.10
62926;BME280;55732;52.248;-0.844;2023-07-02T19:12:09;100126.39;;;18.41;43.26
62926;BME280;55732;52.248;-0.844;2023-07-02T19:14:36;100125.55;;;18.36;43.15
62926;BME280;55732;52.248;-0.844;2023-07-02T19:17:09;100127.39;;;18.30;43.38
62926;BME280;55732;52.248;-0.844;2023-07-02T19:19:36;100128.75;;;18.23;43.30
62926;BME280;55732;52.248;-0.844;2023-07-02T19:22:04;100129.22;;;18.16;43.45
62926;BME280;55732;52.248;-0.844;2023-07-02T19:24:30;100129.72;;;18.12;43.83
62926;BME280;55732;52.248;-0.844;2023-07-02T19:26:55;100132.13;;;18.09;43.72
62926;BME280;55732;52.248;-0.844;2023-07-02T19:29:22;100132.30;;;18.05;43.90
62926;BME280;55732;52.248;-0.844;2023-07-02T19:31:47;100134.27;;;18.00;44.10
62926;BME280;55732;52.248;-0.844;2023-07-02T19:34:17;100130.92;;;17.94;44.13
62926;BME280;55732;52.248;-0.844;2023-07-02T19:36:47;100131.27;;;17.91;44.39
62926;BME280;55732;52.248;-0.844;2023-07-02T19:39:17;100132.08;;;17.88;44.39
62926;BME280;55732;52.248;-0.844;2023-07-02T19:41:43;100134.44;;;17.82;44.31
62926;BME280;55732;52.248;-0.844;2023-07-02T19:44:11;100136.77;;;17.77;44.42
62926;BME280;55732;52.248;-0.844;2023-07-02T19:46:37;100133.13;;;17.74;44.72
62926;BME280;55732;52.248;-0.844;2023-07-02T19:49:02;100133.40;;;17.72;44.76
62926;BME280;55732;52.248;-0.844;2023-07-02T19:51:30;100130.15;;;17.68;44.95
62926;BME280;55732;52.248;-0.844;2023-07-02T19:53:55;100134.73;;;17.65;45.29
62926;BME280;55732;52.248;-0.844;2023-07-02T19:56:21;100129.84;;;17.62;45.17
62926;BME280;55732;52.248;-0.844;2023-07-02T19:58:48;100132.41;;;17.59;45.52
62926;BME280;55732;52.248;-0.844;2023-07-02T20:01:13;100133.57;;;17.57;45.56
62926;BME280;55732;52.248;-0.844;2023-07-02T20:03:39;100132.77;;;17.55;45.78
62926;BME280;55732;52.248;-0.844;2023-07-02T20:06:08;100133.22;;;17.52;46.13
62926;BME280;55732;52.248;-0.844;2023-07-02T20:08:35;100130.80;;;17.50;46.14
62926;BME280;55732;52.248;-0.844;2023-07-02T20:11:00;100132.72;;;17.46;46.02
62926;BME280;55732;52.248;-0.844;2023-07-02T20:13:26;100129.11;;;17.43;46.09
62926;BME280;55732;52.248;-0.844;2023-07-02T20:15:51;100134.24;;;17.39;46.29
62926;BME280;55732;52.248;-0.844;2023-07-02T20:18:24;100134.06;;;17.34;46.54
62926;BME280;55732;52.248;-0.844;2023-07-02T20:20:50;100134.39;;;17.30;46.67
62926;BME280;55732;52.248;-0.844;2023-07-02T20:23:20;100133.13;;;17.25;46.75
62926;BME280;55732;52.248;-0.844;2023-07-02T20:25:45;100125.61;;;17.16;46.84
62926;BME280;55732;52.248;-0.844;2023-07-02T20:28:11;100136.31;;;17.16;47.09
62926;BME280;55732;52.248;-0.844;2023-07-02T20:30:36;100133.58;;;17.13;47.46
62926;BME280;55732;52.248;-0.844;2023-07-02T20:33:01;100136.21;;;17.09;47.52
62926;BME280;55732;52.248;-0.844;2023-07-02T20:35:27;100134.02;;;17.05;47.67
62926;BME280;55732;52.248;-0.844;2023-07-02T20:37:52;100136.13;;;17.01;47.79
62926;BME280;55732;52.248;-0.844;2023-07-02T20:40:18;100136.85;;;16.95;47.97
62926;BME280;55732;52.248;-0.844;2023-07-02T20:42:44;100135.71;;;16.92;48.02
62926;BME280;55732;52.248;-0.844;2023-07-02T20:45:10;100139.45;;;16.87;48.24
62926;BME280;55732;52.248;-0.844;2023-07-02T20:47:41;100136.20;;;16.83;48.51
62926;BME280;55732;52.248;-0.844;2023-07-02T20:50:11;100132.24;;;16.79;48.90
62926;BME280;55732;52.248;-0.844;2023-07-02T20:52:42;100136.95;;;16.77;48.97
62926;BME280;55732;52.248;-0.844;2023-07-02T20:55:09;100137.31;;;16.72;49.19
62926;BME280;55732;52.248;-0.844;2023-07-02T20:57:35;100139.23;;;16.67;49.49
62926;BME280;55732;52.248;-0.844;2023-07-02T21:00:01;100144.00;;;16.63;49.63
62926;BME280;55732;52.248;-0.844;2023-07-02T21:02:27;100148.16;;;16.59;49.79
62926;BME280;55732;52.248;-0.844;2023-07-02T21:04:52;100150.39;;;16.56;49.96
62926;BME280;55732;52.248;-0.844;2023-07-02T21:07:22;100154.76;;;16.53;50.13
62926;BME280;55732;52.248;-0.844;2023-07-02T21:09:48;100157.00;;;16.50;50.30
62926;BME280;55732;52.248;-0.844;2023-07-02T21:12:13;100163.13;;;16.47;50.48
62926;BME280;55732;52.248;-0.844;2023-07-02T21:14:39;100163.39;;;16.45;50.66
62926;BME280;55732;52.248;-0.844;2023-07-02T21:17:04;100165.87;;;16.40;50.67
62926;BME280;55732;52.248;-0.844;2023-07-02T21:19:35;100166.54;;;16.36;51.02
62926;BME280;55732;52.248;-0.844;2023-07-02T21:22:01;100167.94;;;16.31;51.35
62926;BME280;55732;52.248;-0.844;2023-07-02T21:24:26;100171.48;;;16.25;51.71
62926;BME280;55732;52.248;-0.844;2023-07-02T21:26:51;100177.89;;;16.18;51.97
62926;BME280;55732;52.248;-0.844;2023-07-02T21:29:17;100171.73;;;16.11;52.20
62926;BME280;55732;52.248;-0.844;2023-07-02T21:31:42;100171.08;;;16.04;52.67
62926;BME280;55732;52.248;-0.844;2023-07-02T21:34:07;100172.21;;;15.96;52.72
62926;BME280;55732;52.248;-0.844;2023-07-02T21:36:33;100174.42;;;15.86;52.60
62926;BME280;55732;52.248;-0.844;2023-07-02T21:38:58;100176.44;;;15.79;52.64
62926;BME280;55732;52.248;-0.844;2023-07-02T21:41:23;100173.74;;;15.74;52.99
62926;BME280;55732;52.248;-0.844;2023-07-02T21:43:53;100174.23;;;15.69;53.17
62926;BME280;55732;52.248;-0.844;2023-07-02T21:46:18;100171.48;;;15.66;53.28
62926;BME280;55732;52.248;-0.844;2023-07-02T21:48:46;100170.33;;;15.62;53.26
62926;BME280;55732;52.248;-0.844;2023-07-02T21:51:11;100168.14;;;15.59;53.52
62926;BME280;55732;52.248;-0.844;2023-07-02T21:53:37;100171.80;;;15.55;53.58
62926;BME280;55732;52.248;-0.844;2023-07-02T21:56:02;100170.10;;;15.50;53.88
62926;BME280;55732;52.248;-0.844;2023-07-02T21:58:28;100168.80;;;15.47;53.97
62926;BME280;55732;52.248;-0.844;2023-07-02T22:00:53;100172.82;;;15.42;53.95
62926;BME280;55732;52.248;-0.844;2023-07-02T22:03:19;100163.51;;;15.39;54.26
62926;BME280;55732;52.248;-0.844;2023-07-02T22:05:52;100169.09;;;15.36;54.40
62926;BME280;55732;52.248;-0.844;2023-07-02T22:08:19;100168.30;;;15.33;54.36
62926;BME280;55732;52.248;-0.844;2023-07-02T22:10:46;100170.86;;;15.30;54.61
62926;BME280;55732;52.248;-0.844;2023-07-02T22:13:12;100164.89;;;15.28;54.80
62926;BME280;55732;52.248;-0.844;2023-07-02T22:15:37;100164.44;;;15.24;54.74
62926;BME280;55732;52.248;-0.844;2023-07-02T22:18:06;100166.67;;;15.21;54.83
62926;BME280;55732;52.248;-0.844;2023-07-02T22:20:36;100167.46;;;15.18;54.97
62926;BME280;55732;52.248;-0.844;2023-07-02T22:23:02;100169.45;;;15.16;55.08
62926;BME280;55732;52.248;-0.844;2023-07-02T22:25:27;100167.36;;;15.14;55.23
62926;BME280;55732;52.248;-0.844;2023-07-02T22:27:54;100166.54;;;15.12;55.40
62926;BME280;55732;52.248;-0.844;2023-07-02T22:30:20;100172.48;;;15.08;55.19
62926;BME280;55732;52.248;-0.844;2023-07-02T22:32:46;100176.08;;;15.07;55.25
62926;BME280;55732;52.248;-0.844;2023-07-02T22:35:11;100177.36;;;15.06;55.32
62926;BME280;55732;52.248;-0.844;2023-07-02T22:37:37;100182.86;;;15.05;55.63
62926;BME280;55732;52.248;-0.844;2023-07-02T22:40:08;100185.02;;;15.04;55.84
62926;BME280;55732;52.248;-0.844;2023-07-02T22:42:37;100183.96;;;15.04;55.82
62926;BME280;55732;52.248;-0.844;2023-07-02T22:45:10;100187.71;;;15.03;55.98
62926;BME280;55732;52.248;-0.844;2023-07-02T22:47:36;100192.54;;;15.01;56.00
62926;BME280;55732;52.248;-0.844;2023-07-02T22:50:03;100192.79;;;14.99;56.04
62926;BME280;55732;52.248;-0.844;2023-07-02T22:52:29;100190.13;;;14.92;56.24
62926;BME280;55732;52.248;-0.844;2023-07-02T22:54:55;100203.94;;;14.92;56.30
62926;BME280;55732;52.248;-0.844;2023-07-02T22:57:22;100207.04;;;14.88;56.40
62926;BME280;55732;52.248;-0.844;2023-07-02T22:59:48;100207.66;;;14.85;56.38
62926;BME280;55732;52.248;-0.844;2023-07-02T23:02:14;100207.58;;;14.82;56.54
62926;BME280;55732;52.248;-0.844;2023-07-02T23:04:40;100201.20;;;14.74;56.50
62926;BME280;55732;52.248;-0.844;2023-07-02T23:07:06;100208.93;;;14.76;56.59
62926;BME280;55732;52.248;-0.844;2023-07-02T23:09:32;100202.98;;;14.74;56.89
62926;BME280;55732;52.248;-0.844;2023-07-02T23:11:57;100201.30;;;14.70;56.86
62926;BME280;55732;52.248;-0.844;2023-07-02T23:14:23;100197.46;;;14.67;57.12
62926;BME280;55732;52.248;-0.844;2023-07-02T23:16:48;100196.86;;;14.63;57.27
62926;BME280;55732;52.248;-0.844;2023-07-02T23:19:14;100192.54;;;14.59;57.50
62926;BME280;55732;52.248;-0.844;2023-07-02T23:21:39;100192.09;;;14.55;57.57
62926;BME280;55732;52.248;-0.844;2023-07-02T23:24:14;100191.48;;;14.51;57.70
62926;BME280;55732;52.248;-0.844;2023-07-02T23:26:45;100189.33;;;14.45;58.15
62926;BME280;55732;52.248;-0.844;2023-07-02T23:29:10;100191.73;;;14.39;58.21
62926;BME280;55732;52.248;-0.844;2023-07-02T23:31:36;100191.46;;;14.35;58.47
62926;BME280;55732;52.248;-0.844;2023-07-02T23:34:01;100192.13;;;14.30;58.71
62926;BME280;55732;52.248;-0.844;2023-07-02T23:36:27;100191.20;;;14.24;59.01
62926;BME280;55732;52.248;-0.844;2023-07-02T23:38:53;100189.54;;;14.18;59.05
62926;BME280;55732;52.248;-0.844;2023-07-02T23:41:20;100189.11;;;14.14;59.34
62926;BME280;55732;52.248;-0.844;2023-07-02T23:43:46;100189.77;;;14.08;59.55
62926;BME280;55732;52.248;-0.844;2023-07-02T23:46:12;100186.00;;;14.02;59.67
62926;BME280;55732;52.248;-0.844;2023-07-02T23:48:38;100187.53;;;13.97;59.95
62926;BME280;55732;52.248;-0.844;2023-07-02T23:51:03;100187.98;;;13.93;59.98